HAZ2707 ZSHC-ZJQH
Flight info
| Callsign | HAZ2707 |
|---|---|
| Flight time | N/A |
| Altitude | 38100 |
| Route | ELNEX5E ELNEX A599 PLT W19 NOMAR W18 NLG W23 ZUH R200 BIGRO G221 ANPIM ANPIM9ZA |
| Aircraft | A20N/M-SDE2E3FGHIRWXY/LB1 |
Departure
| Time | 2026-05-05 11:59 |
|---|---|
| Airport | Hangzhou Xiaoshan International Airport (ZSHC) |
Arrival
| Time | N/A |
|---|---|
| Airport | Qionghai Bo'ao Airport (ZJQH) |
| Time | Latitude | Longitude | Altitude | Speed | Heading |
|---|---|---|---|---|---|
| 2026-05-05 11:36 | 30.24173 | 120.42760 | 28 ft | 0 kts | 191° |
| 2026-05-05 11:47 | 30.24180 | 120.42761 | 28 ft | 2 kts | 188° |
| 2026-05-05 11:47 | 30.24195 | 120.42764 | 29 ft | 2 kts | 190° |
| 2026-05-05 11:47 | 30.24210 | 120.42767 | 28 ft | 2 kts | 189° |
| 2026-05-05 11:48 | 30.24240 | 120.42773 | 29 ft | 2 kts | 189° |
| 2026-05-05 11:48 | 30.24254 | 120.42776 | 29 ft | 2 kts | 190° |
| 2026-05-05 11:48 | 30.24269 | 120.42779 | 29 ft | 2 kts | 190° |
| 2026-05-05 11:49 | 30.24284 | 120.42785 | 29 ft | 2 kts | 209° |
| 2026-05-05 11:49 | 30.24296 | 120.42795 | 29 ft | 2 kts | 223° |
| 2026-05-05 11:49 | 30.24305 | 120.42807 | 29 ft | 0 kts | 237° |
| 2026-05-05 11:49 | 30.24309 | 120.42813 | 29 ft | 1 kts | 240° |
| 2026-05-05 11:50 | 30.24309 | 120.42814 | 28 ft | 0 kts | 240° |
| 2026-05-05 11:52 | 30.24307 | 120.42810 | 28 ft | 1 kts | 240° |
| 2026-05-05 11:52 | 30.24301 | 120.42797 | 28 ft | 2 kts | 241° |
| 2026-05-05 11:52 | 30.24290 | 120.42773 | 28 ft | 4 kts | 242° |
| 2026-05-05 11:53 | 30.24260 | 120.42707 | 28 ft | 15 kts | 244° |
| 2026-05-05 11:53 | 30.24196 | 120.42561 | 28 ft | 22 kts | 245° |
| 2026-05-05 11:53 | 30.24213 | 120.42461 | 28 ft | 13 kts | 346° |
| 2026-05-05 11:53 | 30.24296 | 120.42416 | 28 ft | 13 kts | 313° |
| 2026-05-05 11:54 | 30.24286 | 120.42316 | 28 ft | 14 kts | 240° |
| 2026-05-05 11:54 | 30.24238 | 120.42213 | 28 ft | 14 kts | 242° |
| 2026-05-05 11:54 | 30.24192 | 120.42107 | 29 ft | 15 kts | 244° |
| 2026-05-05 11:54 | 30.24143 | 120.41997 | 28 ft | 15 kts | 243° |
| 2026-05-05 11:55 | 30.24093 | 120.41886 | 28 ft | 15 kts | 244° |
| 2026-05-05 11:55 | 30.24043 | 120.41771 | 28 ft | 16 kts | 243° |
| 2026-05-05 11:55 | 30.23991 | 120.41655 | 28 ft | 16 kts | 242° |
| 2026-05-05 11:55 | 30.23940 | 120.41535 | 29 ft | 16 kts | 248° |
| 2026-05-05 11:56 | 30.23889 | 120.41419 | 28 ft | 16 kts | 242° |
| 2026-05-05 11:56 | 30.23838 | 120.41299 | 28 ft | 16 kts | 243° |
| 2026-05-05 11:56 | 30.23782 | 120.41179 | 29 ft | 16 kts | 244° |
| 2026-05-05 11:56 | 30.23730 | 120.41058 | 28 ft | 17 kts | 241° |
| 2026-05-05 11:57 | 30.23682 | 120.40944 | 28 ft | 10 kts | 265° |
| 2026-05-05 11:57 | 30.23727 | 120.40897 | 29 ft | 1 kts | 340° |
| 2026-05-05 11:57 | 30.23728 | 120.40897 | 28 ft | 0 kts | 340° |
| 2026-05-05 11:57 | 30.23741 | 120.40891 | 28 ft | 6 kts | 338° |
| 2026-05-05 11:58 | 30.23791 | 120.40865 | 29 ft | 8 kts | 341° |
| 2026-05-05 11:58 | 30.23842 | 120.40888 | 29 ft | 8 kts | 51° |
| 2026-05-05 11:58 | 30.23881 | 120.40966 | 28 ft | 24 kts | 62° |
| 2026-05-05 11:58 | 30.24074 | 120.41410 | 29 ft | 96 kts | 64° |
| 2026-05-05 11:59 | 30.24477 | 120.42312 | 30 ft | 153 kts | 65° |
| 2026-05-05 11:59 | 30.24998 | 120.43456 | 451 ft | 161 kts | 65° |
| 2026-05-05 11:59 | 30.25502 | 120.44601 | 1034 ft | 162 kts | 66° |
| 2026-05-05 11:59 | 30.26008 | 120.45760 | 1642 ft | 164 kts | 67° |
| 2026-05-05 12:00 | 30.26527 | 120.46953 | 2116 ft | 175 kts | 67° |
| 2026-05-05 12:00 | 30.27098 | 120.48268 | 2532 ft | 191 kts | 66° |
| 2026-05-05 12:00 | 30.27717 | 120.49686 | 2954 ft | 208 kts | 65° |
| 2026-05-05 12:00 | 30.28604 | 120.51048 | 3479 ft | 222 kts | 38° |
| 2026-05-05 12:01 | 30.30118 | 120.51527 | 4010 ft | 234 kts | 355° |
| 2026-05-05 12:01 | 30.31552 | 120.50766 | 4831 ft | 229 kts | 321° |
| 2026-05-05 12:01 | 30.32704 | 120.49554 | 5601 ft | 227 kts | 315° |
| 2026-05-05 12:01 | 30.33747 | 120.48196 | 6304 ft | 227 kts | 298° |
| 2026-05-05 12:02 | 30.34137 | 120.46485 | 6942 ft | 226 kts | 269° |
| 2026-05-05 12:02 | 30.33792 | 120.44740 | 7620 ft | 224 kts | 244° |
| 2026-05-05 12:02 | 30.33059 | 120.43168 | 8307 ft | 225 kts | 241° |
| 2026-05-05 12:02 | 30.32305 | 120.41585 | 8935 ft | 228 kts | 242° |
| 2026-05-05 12:03 | 30.31545 | 120.39957 | 9541 ft | 230 kts | 243° |
| 2026-05-05 12:03 | 30.30796 | 120.38316 | 10161 ft | 232 kts | 244° |
| 2026-05-05 12:03 | 30.30052 | 120.36657 | 10767 ft | 234 kts | 244° |
| 2026-05-05 12:03 | 30.29314 | 120.34999 | 11356 ft | 236 kts | 245° |
| 2026-05-05 12:04 | 30.28555 | 120.33296 | 11950 ft | 238 kts | 245° |
| 2026-05-05 12:04 | 30.27803 | 120.31604 | 12561 ft | 240 kts | 245° |
| 2026-05-05 12:04 | 30.27020 | 120.29836 | 12903 ft | 254 kts | 245° |
| 2026-05-05 12:04 | 30.26177 | 120.27927 | 13150 ft | 277 kts | 245° |
| 2026-05-05 12:05 | 30.25296 | 120.25944 | 13778 ft | 282 kts | 245° |
| 2026-05-05 12:05 | 30.24400 | 120.23933 | 14531 ft | 283 kts | 245° |
| 2026-05-05 12:05 | 30.23492 | 120.21896 | 15248 ft | 285 kts | 245° |
| 2026-05-05 12:05 | 30.22588 | 120.19869 | 15934 ft | 287 kts | 245° |
| 2026-05-05 12:06 | 30.21676 | 120.17818 | 16552 ft | 291 kts | 245° |
| 2026-05-05 12:06 | 30.20733 | 120.15694 | 16934 ft | 304 kts | 245° |
| 2026-05-05 12:06 | 30.19738 | 120.13457 | 17000 ft | 327 kts | 244° |
| 2026-05-05 12:06 | 30.18660 | 120.11043 | 17156 ft | 346 kts | 244° |
| 2026-05-05 12:07 | 30.17528 | 120.08514 | 17431 ft | 361 kts | 244° |
| 2026-05-05 12:07 | 30.16354 | 120.05895 | 17702 ft | 375 kts | 244° |
| 2026-05-05 12:07 | 30.15141 | 120.03188 | 17955 ft | 389 kts | 244° |
| 2026-05-05 12:07 | 30.13869 | 120.00354 | 18354 ft | 398 kts | 244° |
| 2026-05-05 12:08 | 30.12591 | 119.97513 | 18943 ft | 401 kts | 244° |
| 2026-05-05 12:08 | 30.11314 | 119.94674 | 19572 ft | 402 kts | 244° |
| 2026-05-05 12:08 | 30.10030 | 119.91820 | 20127 ft | 406 kts | 244° |
| 2026-05-05 12:08 | 30.08719 | 119.88909 | 20681 ft | 409 kts | 244° |
| 2026-05-05 12:09 | 30.07415 | 119.86012 | 21212 ft | 412 kts | 244° |
| 2026-05-05 12:09 | 30.06080 | 119.83050 | 21734 ft | 415 kts | 244° |
| 2026-05-05 12:09 | 30.04662 | 119.80170 | 22220 ft | 420 kts | 237° |
| 2026-05-05 12:09 | 30.02738 | 119.77585 | 22712 ft | 425 kts | 225° |
| 2026-05-05 12:10 | 30.01231 | 119.76148 | 23046 ft | 429 kts | 218° |